sensor_id;sensor_type;location;lat;lon;timestamp;pressure;altitude;pressure_sealevel;temperature;humidity
45872;BME280;32333;55.844;-3.210;2023-06-14T00:01:50;100019.73;;;15.10;100.00
45872;BME280;32333;55.844;-3.210;2023-06-14T00:04:17;100018.14;;;15.71;100.00
45872;BME280;32333;55.844;-3.210;2023-06-14T00:06:45;100021.43;;;15.39;100.00
45872;BME280;32333;55.844;-3.210;2023-06-14T00:09:12;100022.19;;;15.86;100.00
45872;BME280;32333;55.844;-3.210;2023-06-14T00:11:41;100027.87;;;13.63;100.00
45872;BME280;32333;55.844;-3.210;2023-06-14T00:14:36;100031.25;;;13.87;100.00
45872;BME280;32333;55.844;-3.210;2023-06-14T00:17:03;100024.09;;;15.69;100.00
45872;BME280;32333;55.844;-3.210;2023-06-14T00:19:31;100021.78;;;14.86;100.00
45872;BME280;32333;55.844;-3.210;2023-06-14T00:21:59;100031.37;;;15.99;100.00
45872;BME280;32333;55.844;-3.210;2023-06-14T00:24:26;100028.17;;;15.63;100.00
45872;BME280;32333;55.844;-3.210;2023-06-14T00:26:54;100026.11;;;15.57;100.00
45872;BME280;32333;55.844;-3.210;2023-06-14T00:29:23;100027.06;;;15.75;100.00
45872;BME280;32333;55.844;-3.210;2023-06-14T00:31:50;100029.10;;;16.67;100.00
45872;BME280;32333;55.844;-3.210;2023-06-14T00:34:17;100028.69;;;15.93;100.00
45872;BME280;32333;55.844;-3.210;2023-06-14T00:36:45;100028.71;;;14.84;100.00
45872;BME280;32333;55.844;-3.210;2023-06-14T00:39:12;100030.17;;;16.21;100.00
45872;BME280;32333;55.844;-3.210;2023-06-14T00:41:39;100031.10;;;15.64;100.00
45872;BME280;32333;55.844;-3.210;2023-06-14T00:44:36;100031.76;;;16.19;100.00
45872;BME280;32333;55.844;-3.210;2023-06-14T00:47:03;100031.82;;;14.55;100.00
45872;BME280;32333;55.844;-3.210;2023-06-14T00:49:31;100029.38;;;15.79;100.00
45872;BME280;32333;55.844;-3.210;2023-06-14T00:51:59;100028.98;;;14.90;100.00
45872;BME280;32333;55.844;-3.210;2023-06-14T00:54:26;100031.16;;;15.30;100.00
45872;BME280;32333;55.844;-3.210;2023-06-14T00:56:54;100034.38;;;15.60;100.00
45872;BME280;32333;55.844;-3.210;2023-06-14T00:59:22;100026.16;;;16.35;100.00
45872;BME280;32333;55.844;-3.210;2023-06-14T01:01:50;100030.07;;;16.48;100.00
45872;BME280;32333;55.844;-3.210;2023-06-14T01:04:18;100036.02;;;13.10;100.00
45872;BME280;32333;55.844;-3.210;2023-06-14T01:06:58;100033.90;;;15.87;100.00
45872;BME280;32333;55.844;-3.210;2023-06-14T01:09:34;100029.96;;;14.94;100.00
45872;BME280;32333;55.844;-3.210;2023-06-14T01:14:36;100032.27;;;14.17;100.00
45872;BME280;32333;55.844;-3.210;2023-06-14T01:17:05;100033.85;;;15.38;100.00
45872;BME280;32333;55.844;-3.210;2023-06-14T01:19:34;100036.34;;;15.54;100.00
45872;BME280;32333;55.844;-3.210;2023-06-14T01:22:02;100037.07;;;15.06;100.00
45872;BME280;32333;55.844;-3.210;2023-06-14T01:24:29;100038.34;;;15.92;100.00
45872;BME280;32333;55.844;-3.210;2023-06-14T01:26:59;100038.04;;;15.28;100.00
45872;BME280;32333;55.844;-3.210;2023-06-14T01:29:27;100040.37;;;14.94;100.00
45872;BME280;32333;55.844;-3.210;2023-06-14T01:31:57;100042.27;;;14.00;100.00
45872;BME280;32333;55.844;-3.210;2023-06-14T01:34:24;100037.55;;;14.69;100.00
45872;BME280;32333;55.844;-3.210;2023-06-14T01:36:52;100036.17;;;15.03;100.00
45872;BME280;32333;55.844;-3.210;2023-06-14T01:39:21;100034.92;;;15.24;100.00
45872;BME280;32333;55.844;-3.210;2023-06-14T01:41:50;100035.92;;;14.40;100.00
45872;BME280;32333;55.844;-3.210;2023-06-14T01:44:36;100034.03;;;14.35;100.00
45872;BME280;32333;55.844;-3.210;2023-06-14T01:47:04;100031.52;;;15.04;100.00
45872;BME280;32333;55.844;-3.210;2023-06-14T01:49:34;100037.99;;;11.00;100.00
45872;BME280;32333;55.844;-3.210;2023-06-14T01:52:01;100032.99;;;12.30;100.00
45872;BME280;32333;55.844;-3.210;2023-06-14T01:54:28;100032.08;;;12.93;100.00
45872;BME280;32333;55.844;-3.210;2023-06-14T01:56:55;100037.61;;;9.25;100.00
45872;BME280;32333;55.844;-3.210;2023-06-14T01:59:23;100034.70;;;10.25;100.00
45872;BME280;32333;55.844;-3.210;2023-06-14T02:01:50;100028.46;;;12.41;100.00
45872;BME280;32333;55.844;-3.210;2023-06-14T02:04:18;100026.89;;;12.55;100.00
45872;BME280;32333;55.844;-3.210;2023-06-14T02:06:46;100026.35;;;12.52;100.00
45872;BME280;32333;55.844;-3.210;2023-06-14T02:09:14;100023.40;;;12.29;100.00
45872;BME280;32333;55.844;-3.210;2023-06-14T02:11:41;100022.16;;;12.03;100.00
45872;BME280;32333;55.844;-3.210;2023-06-14T02:14:35;100018.09;;;10.32;100.00
45872;BME280;32333;55.844;-3.210;2023-06-14T02:17:02;100031.12;;;8.56;100.00
45872;BME280;32333;55.844;-3.210;2023-06-14T02:19:29;100022.92;;;11.68;100.00
45872;BME280;32333;55.844;-3.210;2023-06-14T02:21:56;100025.88;;;10.10;100.00
45872;BME280;32333;55.844;-3.210;2023-06-14T02:24:24;100035.57;;;9.60;100.00
45872;BME280;32333;55.844;-3.210;2023-06-14T02:26:51;100028.34;;;10.88;100.00
45872;BME280;32333;55.844;-3.210;2023-06-14T02:29:18;100027.77;;;12.80;100.00
45872;BME280;32333;55.844;-3.210;2023-06-14T02:31:47;100028.47;;;13.02;100.00
45872;BME280;32333;55.844;-3.210;2023-06-14T02:34:15;100033.17;;;11.70;100.00
45872;BME280;32333;55.844;-3.210;2023-06-14T02:36:42;100028.42;;;12.01;100.00
45872;BME280;32333;55.844;-3.210;2023-06-14T02:39:09;100032.60;;;11.30;100.00
45872;BME280;32333;55.844;-3.210;2023-06-14T02:41:37;100034.48;;;11.59;100.00
45872;BME280;32333;55.844;-3.210;2023-06-14T02:44:35;100031.69;;;12.24;100.00
45872;BME280;32333;55.844;-3.210;2023-06-14T02:47:03;100030.55;;;12.08;100.00
45872;BME280;32333;55.844;-3.210;2023-06-14T02:49:31;100028.38;;;12.31;100.00
45872;BME280;32333;55.844;-3.210;2023-06-14T02:51:59;100031.69;;;11.84;100.00
45872;BME280;32333;55.844;-3.210;2023-06-14T02:54:26;100034.16;;;11.46;100.00
45872;BME280;32333;55.844;-3.210;2023-06-14T02:56:54;100037.53;;;11.19;100.00
45872;BME280;32333;55.844;-3.210;2023-06-14T02:59:22;100031.42;;;12.07;100.00
45872;BME280;32333;55.844;-3.210;2023-06-14T03:01:49;100036.48;;;11.39;100.00
45872;BME280;32333;55.844;-3.210;2023-06-14T03:04:16;100034.45;;;12.41;100.00
45872;BME280;32333;55.844;-3.210;2023-06-14T03:06:44;100037.36;;;11.93;100.00
45872;BME280;32333;55.844;-3.210;2023-06-14T03:09:12;100040.35;;;12.87;100.00
45872;BME280;32333;55.844;-3.210;2023-06-14T03:11:39;100037.87;;;12.12;100.00
45872;BME280;32333;55.844;-3.210;2023-06-14T03:14:35;100049.43;;;9.01;100.00
45872;BME280;32333;55.844;-3.210;2023-06-14T03:17:03;100054.60;;;8.40;100.00
45872;BME280;32333;55.844;-3.210;2023-06-14T03:19:31;100047.15;;;11.07;100.00
45872;BME280;32333;55.844;-3.210;2023-06-14T03:21:59;100049.31;;;11.94;100.00
45872;BME280;32333;55.844;-3.210;2023-06-14T03:24:26;100055.32;;;11.72;100.00
45872;BME280;32333;55.844;-3.210;2023-06-14T03:26:54;100057.08;;;12.40;100.00
45872;BME280;32333;55.844;-3.210;2023-06-14T03:29:21;100062.63;;;11.45;100.00
45872;BME280;32333;55.844;-3.210;2023-06-14T03:31:59;100062.28;;;12.31;100.00
45872;BME280;32333;55.844;-3.210;2023-06-14T03:34:27;100067.46;;;12.14;100.00
45872;BME280;32333;55.844;-3.210;2023-06-14T03:36:55;100066.08;;;13.45;100.00
45872;BME280;32333;55.844;-3.210;2023-06-14T03:39:22;100071.25;;;12.77;100.00
45872;BME280;32333;55.844;-3.210;2023-06-14T03:41:49;100072.78;;;12.82;100.00
45872;BME280;32333;55.844;-3.210;2023-06-14T03:44:35;100077.36;;;13.11;100.00
45872;BME280;32333;55.844;-3.210;2023-06-14T03:47:03;100075.32;;;13.60;100.00
45872;BME280;32333;55.844;-3.210;2023-06-14T03:49:30;100079.10;;;13.26;100.00
45872;BME280;32333;55.844;-3.210;2023-06-14T03:51:59;100076.58;;;13.33;100.00
45872;BME280;32333;55.844;-3.210;2023-06-14T03:54:26;100079.08;;;12.97;100.00
45872;BME280;32333;55.844;-3.210;2023-06-14T03:56:53;100080.80;;;12.94;100.00
45872;BME280;32333;55.844;-3.210;2023-06-14T03:59:20;100087.18;;;11.26;100.00
45872;BME280;32333;55.844;-3.210;2023-06-14T04:01:48;100088.13;;;12.91;100.00
45872;BME280;32333;55.844;-3.210;2023-06-14T04:04:16;100087.87;;;12.56;100.00
45872;BME280;32333;55.844;-3.210;2023-06-14T04:06:43;100092.59;;;11.81;100.00
45872;BME280;32333;55.844;-3.210;2023-06-14T04:09:11;100094.27;;;12.78;100.00
45872;BME280;32333;55.844;-3.210;2023-06-14T04:11:38;100091.97;;;11.70;100.00
45872;BME280;32333;55.844;-3.210;2023-06-14T04:14:35;100094.95;;;13.51;100.00
45872;BME280;32333;55.844;-3.210;2023-06-14T04:17:03;100099.26;;;12.94;100.00
45872;BME280;32333;55.844;-3.210;2023-06-14T04:19:31;100098.88;;;14.15;100.00
45872;BME280;32333;55.844;-3.210;2023-06-14T04:22:00;100101.15;;;11.43;100.00
45872;BME280;32333;55.844;-3.210;2023-06-14T04:24:28;100099.45;;;11.76;100.00
45872;BME280;32333;55.844;-3.210;2023-06-14T04:26:55;100104.16;;;10.12;100.00
45872;BME280;32333;55.844;-3.210;2023-06-14T04:29:23;100105.66;;;11.69;100.00
45872;BME280;32333;55.844;-3.210;2023-06-14T04:31:51;100108.59;;;12.79;100.00
45872;BME280;32333;55.844;-3.210;2023-06-14T04:34:19;100110.99;;;11.77;100.00
45872;BME280;32333;55.844;-3.210;2023-06-14T04:36:45;100112.50;;;12.58;100.00
45872;BME280;32333;55.844;-3.210;2023-06-14T04:39:13;100116.06;;;12.39;100.00
45872;BME280;32333;55.844;-3.210;2023-06-14T04:41:40;100113.47;;;13.01;100.00
45872;BME280;32333;55.844;-3.210;2023-06-14T04:44:35;100117.13;;;13.51;100.00
45872;BME280;32333;55.844;-3.210;2023-06-14T04:47:03;100115.55;;;13.59;100.00
45872;BME280;32333;55.844;-3.210;2023-06-14T04:49:31;100121.81;;;14.51;100.00
45872;BME280;32333;55.844;-3.210;2023-06-14T04:51:59;100119.95;;;14.57;100.00
45872;BME280;32333;55.844;-3.210;2023-06-14T04:54:27;100114.02;;;13.34;100.00
45872;BME280;32333;55.844;-3.210;2023-06-14T04:56:54;100116.36;;;13.91;100.00
45872;BME280;32333;55.844;-3.210;2023-06-14T04:59:23;100116.57;;;13.80;100.00
45872;BME280;32333;55.844;-3.210;2023-06-14T05:01:50;100120.35;;;15.18;100.00
45872;BME280;32333;55.844;-3.210;2023-06-14T05:04:18;100120.47;;;11.58;100.00
45872;BME280;32333;55.844;-3.210;2023-06-14T05:06:47;100124.27;;;11.57;100.00
45872;BME280;32333;55.844;-3.210;2023-06-14T05:09:15;100124.35;;;12.67;100.00
45872;BME280;32333;55.844;-3.210;2023-06-14T05:11:42;100127.55;;;11.82;100.00
45872;BME280;32333;55.844;-3.210;2023-06-14T05:14:35;100128.51;;;13.78;100.00
45872;BME280;32333;55.844;-3.210;2023-06-14T05:17:03;100130.13;;;12.04;100.00
45872;BME280;32333;55.844;-3.210;2023-06-14T05:19:31;100129.56;;;12.10;100.00
45872;BME280;32333;55.844;-3.210;2023-06-14T05:22:00;100133.36;;;12.35;100.00
45872;BME280;32333;55.844;-3.210;2023-06-14T05:24:27;100135.23;;;11.07;100.00
45872;BME280;32333;55.844;-3.210;2023-06-14T05:26:54;100131.21;;;14.55;100.00
45872;BME280;32333;55.844;-3.210;2023-06-14T05:29:23;100129.16;;;13.46;100.00
45872;BME280;32333;55.844;-3.210;2023-06-14T05:31:50;100133.90;;;12.37;100.00
45872;BME280;32333;55.844;-3.210;2023-06-14T05:34:17;100133.66;;;13.06;100.00
45872;BME280;32333;55.844;-3.210;2023-06-14T05:36:45;100134.92;;;12.46;100.00
45872;BME280;32333;55.844;-3.210;2023-06-14T05:39:12;100141.81;;;13.78;100.00
45872;BME280;32333;55.844;-3.210;2023-06-14T05:41:40;100140.07;;;15.14;100.00
45872;BME280;32333;55.844;-3.210;2023-06-14T05:44:36;100141.31;;;14.28;100.00
45872;BME280;32333;55.844;-3.210;2023-06-14T05:47:05;100137.21;;;15.84;100.00
45872;BME280;32333;55.844;-3.210;2023-06-14T05:49:32;100133.22;;;16.01;100.00
45872;BME280;32333;55.844;-3.210;2023-06-14T05:52:00;100139.07;;;15.98;100.00
45872;BME280;32333;55.844;-3.210;2023-06-14T05:54:27;100135.90;;;16.11;100.00
45872;BME280;32333;55.844;-3.210;2023-06-14T05:56:54;100142.61;;;14.57;100.00
45872;BME280;32333;55.844;-3.210;2023-06-14T05:59:22;100138.24;;;15.75;100.00
45872;BME280;32333;55.844;-3.210;2023-06-14T06:01:49;100140.09;;;14.55;100.00
45872;BME280;32333;55.844;-3.210;2023-06-14T06:04:16;100134.14;;;16.73;100.00
45872;BME280;32333;55.844;-3.210;2023-06-14T06:06:44;100134.65;;;16.38;100.00
45872;BME280;32333;55.844;-3.210;2023-06-14T06:09:11;100140.47;;;14.22;100.00
45872;BME280;32333;55.844;-3.210;2023-06-14T06:11:38;100137.40;;;16.65;100.00
45872;BME280;32333;55.844;-3.210;2023-06-14T06:14:35;100142.66;;;16.86;100.00
45872;BME280;32333;55.844;-3.210;2023-06-14T06:17:04;100147.88;;;17.47;100.00
45872;BME280;32333;55.844;-3.210;2023-06-14T06:19:31;100151.29;;;15.32;100.00
45872;BME280;32333;55.844;-3.210;2023-06-14T06:21:59;100152.35;;;16.15;100.00
45872;BME280;32333;55.844;-3.210;2023-06-14T06:24:27;100155.03;;;17.82;100.00
45872;BME280;32333;55.844;-3.210;2023-06-14T06:26:54;100157.79;;;15.17;100.00
45872;BME280;32333;55.844;-3.210;2023-06-14T06:29:22;100160.16;;;16.74;100.00
45872;BME280;32333;55.844;-3.210;2023-06-14T06:31:49;100165.66;;;16.81;100.00
45872;BME280;32333;55.844;-3.210;2023-06-14T06:34:16;100167.84;;;16.67;100.00
45872;BME280;32333;55.844;-3.210;2023-06-14T06:36:44;100170.20;;;17.13;100.00
45872;BME280;32333;55.844;-3.210;2023-06-14T06:39:11;100168.18;;;17.07;100.00
45872;BME280;32333;55.844;-3.210;2023-06-14T06:41:38;100173.78;;;14.21;100.00
45872;BME280;32333;55.844;-3.210;2023-06-14T06:44:36;100166.81;;;17.00;100.00
45872;BME280;32333;55.844;-3.210;2023-06-14T06:47:03;100167.79;;;17.26;100.00
45872;BME280;32333;55.844;-3.210;2023-06-14T06:49:31;100165.87;;;17.71;100.00
45872;BME280;32333;55.844;-3.210;2023-06-14T06:52:01;100167.43;;;18.06;100.00
45872;BME280;32333;55.844;-3.210;2023-06-14T06:54:29;100165.37;;;17.92;100.00
45872;BME280;32333;55.844;-3.210;2023-06-14T06:56:57;100166.01;;;18.15;100.00
45872;BME280;32333;55.844;-3.210;2023-06-14T06:59:25;100167.79;;;17.32;100.00
45872;BME280;32333;55.844;-3.210;2023-06-14T07:01:52;100168.10;;;15.73;100.00
45872;BME280;32333;55.844;-3.210;2023-06-14T07:04:19;100168.22;;;17.02;100.00
45872;BME280;32333;55.844;-3.210;2023-06-14T07:06:47;100164.77;;;17.57;100.00
45872;BME280;32333;55.844;-3.210;2023-06-14T07:09:14;100165.02;;;17.30;100.00
45872;BME280;32333;55.844;-3.210;2023-06-14T07:11:44;100165.19;;;17.41;100.00
45872;BME280;32333;55.844;-3.210;2023-06-14T07:14:35;100167.88;;;16.75;100.00
45872;BME280;32333;55.844;-3.210;2023-06-14T07:17:03;100173.17;;;16.66;100.00
45872;BME280;32333;55.844;-3.210;2023-06-14T07:19:31;100177.19;;;16.57;100.00
45872;BME280;32333;55.844;-3.210;2023-06-14T07:21:59;100179.08;;;15.86;100.00
45872;BME280;32333;55.844;-3.210;2023-06-14T07:24:26;100178.61;;;16.41;100.00
45872;BME280;32333;55.844;-3.210;2023-06-14T07:26:54;100177.20;;;16.92;100.00
45872;BME280;32333;55.844;-3.210;2023-06-14T07:29:22;100178.25;;;17.58;100.00
45872;BME280;32333;55.844;-3.210;2023-06-14T07:31:49;100181.05;;;16.65;100.00
45872;BME280;32333;55.844;-3.210;2023-06-14T07:34:17;100177.90;;;17.80;100.00
45872;BME280;32333;55.844;-3.210;2023-06-14T07:36:45;100176.12;;;18.22;100.00
45872;BME280;32333;55.844;-3.210;2023-06-14T07:39:13;100179.60;;;17.61;100.00
45872;BME280;32333;55.844;-3.210;2023-06-14T07:41:41;100178.34;;;18.30;100.00
45872;BME280;32333;55.844;-3.210;2023-06-14T07:44:36;100182.23;;;18.73;100.00
45872;BME280;32333;55.844;-3.210;2023-06-14T07:47:05;100186.83;;;19.40;100.00
45872;BME280;32333;55.844;-3.210;2023-06-14T07:49:33;100183.79;;;19.65;100.00
45872;BME280;32333;55.844;-3.210;2023-06-14T07:52:00;100182.05;;;20.58;100.00
45872;BME280;32333;55.844;-3.210;2023-06-14T07:54:27;100188.77;;;20.08;100.00
45872;BME280;32333;55.844;-3.210;2023-06-14T07:56:54;100180.58;;;20.95;100.00
45872;BME280;32333;55.844;-3.210;2023-06-14T07:59:22;100180.53;;;20.69;100.00
45872;BME280;32333;55.844;-3.210;2023-06-14T08:01:49;100181.86;;;21.71;100.00
45872;BME280;32333;55.844;-3.210;2023-06-14T08:04:17;100181.27;;;22.11;100.00
45872;BME280;32333;55.844;-3.210;2023-06-14T08:06:45;100177.56;;;22.21;100.00
45872;BME280;32333;55.844;-3.210;2023-06-14T08:09:13;100176.85;;;20.90;100.00
45872;BME280;32333;55.844;-3.210;2023-06-14T08:11:40;100174.47;;;21.89;100.00
45872;BME280;32333;55.844;-3.210;2023-06-14T08:14:36;100176.57;;;21.98;100.00
45872;BME280;32333;55.844;-3.210;2023-06-14T08:17:04;100177.31;;;23.35;94.55
45872;BME280;32333;55.844;-3.210;2023-06-14T08:19:31;100180.01;;;22.04;100.00
45872;BME280;32333;55.844;-3.210;2023-06-14T08:21:58;100180.24;;;23.57;91.35
45872;BME280;32333;55.844;-3.210;2023-06-14T08:24:26;100178.43;;;23.68;81.68
45872;BME280;32333;55.844;-3.210;2023-06-14T08:26:54;100179.49;;;23.93;80.10
45872;BME280;32333;55.844;-3.210;2023-06-14T08:29:22;100180.25;;;23.79;81.36
45872;BME280;32333;55.844;-3.210;2023-06-14T08:31:49;100174.31;;;25.08;71.43
45872;BME280;32333;55.844;-3.210;2023-06-14T08:34:17;100171.00;;;25.05;74.51
45872;BME280;32333;55.844;-3.210;2023-06-14T08:36:45;100175.27;;;26.49;66.07
45872;BME280;32333;55.844;-3.210;2023-06-14T08:39:13;100173.52;;;24.77;69.48
45872;BME280;32333;55.844;-3.210;2023-06-14T08:41:40;100177.09;;;22.42;75.74
45872;BME280;32333;55.844;-3.210;2023-06-14T08:44:35;100174.74;;;24.54;67.10
45872;BME280;32333;55.844;-3.210;2023-06-14T08:47:06;100171.83;;;25.55;60.94
45872;BME280;32333;55.844;-3.210;2023-06-14T08:50:07;100170.33;;;24.69;69.54
45872;BME280;32333;55.844;-3.210;2023-06-14T08:52:38;100164.82;;;25.26;62.75
45872;BME280;32333;55.844;-3.210;2023-06-14T08:55:06;100168.60;;;23.37;72.84
45872;BME280;32333;55.844;-3.210;2023-06-14T08:57:37;100166.73;;;24.15;71.22
45872;BME280;32333;55.844;-3.210;2023-06-14T09:00:07;100163.90;;;26.29;61.36
45872;BME280;32333;55.844;-3.210;2023-06-14T09:02:35;100163.98;;;26.23;59.75
45872;BME280;32333;55.844;-3.210;2023-06-14T09:05:02;100159.73;;;26.12;60.03
45872;BME280;32333;55.844;-3.210;2023-06-14T09:07:30;100158.12;;;25.71;59.47
45872;BME280;32333;55.844;-3.210;2023-06-14T09:10:07;100158.56;;;26.16;54.49
45872;BME280;32333;55.844;-3.210;2023-06-14T09:14:35;100158.22;;;26.35;51.47
45872;BME280;32333;55.844;-3.210;2023-06-14T09:17:04;100157.68;;;25.99;51.24
45872;BME280;32333;55.844;-3.210;2023-06-14T09:19:34;100158.43;;;26.32;50.96
45872;BME280;32333;55.844;-3.210;2023-06-14T09:22:01;100160.68;;;26.23;50.18
45872;BME280;32333;55.844;-3.210;2023-06-14T09:24:30;100159.12;;;23.87;56.24
45872;BME280;32333;55.844;-3.210;2023-06-14T09:26:57;100157.34;;;24.99;54.39
45872;BME280;32333;55.844;-3.210;2023-06-14T09:29:25;100155.29;;;24.46;55.44
45872;BME280;32333;55.844;-3.210;2023-06-14T09:31:53;100163.62;;;24.18;57.20
45872;BME280;32333;55.844;-3.210;2023-06-14T09:34:21;100156.01;;;25.25;56.37
45872;BME280;32333;55.844;-3.210;2023-06-14T09:36:49;100158.67;;;24.97;57.47
45872;BME280;32333;55.844;-3.210;2023-06-14T09:39:17;100155.57;;;24.85;56.04
45872;BME280;32333;55.844;-3.210;2023-06-14T09:41:45;100157.15;;;26.47;53.44
45872;BME280;32333;55.844;-3.210;2023-06-14T09:44:36;100158.02;;;26.04;56.20
45872;BME280;32333;55.844;-3.210;2023-06-14T09:47:05;100157.96;;;26.58;54.99
45872;BME280;32333;55.844;-3.210;2023-06-14T09:49:32;100155.99;;;26.38;55.13
45872;BME280;32333;55.844;-3.210;2023-06-14T09:51:59;100159.78;;;28.05;50.04
45872;BME280;32333;55.844;-3.210;2023-06-14T09:54:29;100153.33;;;26.62;53.21
45872;BME280;32333;55.844;-3.210;2023-06-14T09:56:57;100150.94;;;26.34;54.22
45872;BME280;32333;55.844;-3.210;2023-06-14T09:59:27;100147.42;;;26.72;48.83
45872;BME280;32333;55.844;-3.210;2023-06-14T10:01:59;100147.89;;;27.25;46.18
45872;BME280;32333;55.844;-3.210;2023-06-14T10:04:28;100148.11;;;26.98;50.12
45872;BME280;32333;55.844;-3.210;2023-06-14T10:06:58;100144.66;;;26.31;48.83
45872;BME280;32333;55.844;-3.210;2023-06-14T10:09:26;100144.55;;;26.74;47.23
45872;BME280;32333;55.844;-3.210;2023-06-14T10:11:56;100146.36;;;27.60;48.71
45872;BME280;32333;55.844;-3.210;2023-06-14T10:14:35;100142.00;;;25.92;51.34
45872;BME280;32333;55.844;-3.210;2023-06-14T10:17:07;100140.09;;;26.51;53.45
45872;BME280;32333;55.844;-3.210;2023-06-14T10:19:40;100145.01;;;24.87;58.49
45872;BME280;32333;55.844;-3.210;2023-06-14T10:22:14;100138.38;;;24.57;52.10
45872;BME280;32333;55.844;-3.210;2023-06-14T10:24:46;100137.52;;;25.17;39.98
45872;BME280;32333;55.844;-3.210;2023-06-14T10:27:14;100139.56;;;25.03;42.78
45872;BME280;32333;55.844;-3.210;2023-06-14T10:30:03;100138.20;;;24.97;41.99
45872;BME280;32333;55.844;-3.210;2023-06-14T10:32:32;100139.49;;;24.69;38.26
45872;BME280;32333;55.844;-3.210;2023-06-14T10:35:00;100135.75;;;24.45;36.93
45872;BME280;32333;55.844;-3.210;2023-06-14T10:37:29;100138.92;;;24.30;37.44
45872;BME280;32333;55.844;-3.210;2023-06-14T10:39:57;100142.71;;;23.71;39.31
45872;BME280;32333;55.844;-3.210;2023-06-14T10:44:39;100136.90;;;22.90;40.96
45872;BME280;32333;55.844;-3.210;2023-06-14T10:47:09;100130.60;;;24.17;38.52
45872;BME280;32333;55.844;-3.210;2023-06-14T10:49:39;100133.70;;;24.30;41.83
45872;BME280;32333;55.844;-3.210;2023-06-14T10:52:12;100132.24;;;24.12;43.28
45872;BME280;32333;55.844;-3.210;2023-06-14T10:54:58;100133.70;;;25.38;48.07
45872;BME280;32333;55.844;-3.210;2023-06-14T10:57:28;100128.66;;;25.22;41.03
45872;BME280;32333;55.844;-3.210;2023-06-14T10:59:55;100122.46;;;24.42;39.65
45872;BME280;32333;55.844;-3.210;2023-06-14T11:02:46;100124.69;;;24.14;40.34
45872;BME280;32333;55.844;-3.210;2023-06-14T11:05:15;100128.53;;;23.78;47.00
45872;BME280;32333;55.844;-3.210;2023-06-14T11:07:51;100135.58;;;24.36;41.41
45872;BME280;32333;55.844;-3.210;2023-06-14T11:10:30;100128.75;;;24.45;40.71
45872;BME280;32333;55.844;-3.210;2023-06-14T11:14:35;100117.27;;;24.46;39.39
45872;BME280;32333;55.844;-3.210;2023-06-14T11:17:03;100124.75;;;23.96;41.83
45872;BME280;32333;55.844;-3.210;2023-06-14T11:19:30;100122.86;;;23.65;42.17
45872;BME280;32333;55.844;-3.210;2023-06-14T11:21:57;100109.39;;;23.21;41.89
45872;BME280;32333;55.844;-3.210;2023-06-14T11:24:26;100115.53;;;22.96;43.24
45872;BME280;32333;55.844;-3.210;2023-06-14T11:26:55;100113.44;;;23.81;42.21
45872;BME280;32333;55.844;-3.210;2023-06-14T11:29:23;100122.19;;;23.84;43.50
45872;BME280;32333;55.844;-3.210;2023-06-14T11:31:50;100113.54;;;23.33;42.06
45872;BME280;32333;55.844;-3.210;2023-06-14T11:34:18;100121.60;;;23.94;43.45
45872;BME280;32333;55.844;-3.210;2023-06-14T11:36:46;100110.14;;;22.97;44.72
45872;BME280;32333;55.844;-3.210;2023-06-14T11:39:14;100119.10;;;23.79;45.02
45872;BME280;32333;55.844;-3.210;2023-06-14T11:41:43;100109.51;;;23.65;43.58
45872;BME280;32333;55.844;-3.210;2023-06-14T11:44:35;100110.60;;;23.79;44.31
45872;BME280;32333;55.844;-3.210;2023-06-14T11:47:04;100120.50;;;23.16;45.38
45872;BME280;32333;55.844;-3.210;2023-06-14T11:49:35;100127.30;;;23.49;72.70
45872;BME280;32333;55.844;-3.210;2023-06-14T11:52:03;100118.33;;;23.69;48.30
45872;BME280;32333;55.844;-3.210;2023-06-14T11:54:32;100137.98;;;24.02;61.86
45872;BME280;32333;55.844;-3.210;2023-06-14T11:56:59;100133.54;;;23.66;70.72
45872;BME280;32333;55.844;-3.210;2023-06-14T11:59:27;100127.10;;;23.31;52.56
45872;BME280;32333;55.844;-3.210;2023-06-14T12:01:54;100116.05;;;24.84;47.66
45872;BME280;32333;55.844;-3.210;2023-06-14T12:04:24;100127.78;;;24.86;61.58
45872;BME280;32333;55.844;-3.210;2023-06-14T12:06:53;100121.25;;;24.89;58.02
45872;BME280;32333;55.844;-3.210;2023-06-14T12:09:20;100125.46;;;24.37;65.54
45872;BME280;32333;55.844;-3.210;2023-06-14T12:11:48;100121.84;;;22.45;69.99
45872;BME280;32333;55.844;-3.210;2023-06-14T12:14:35;100114.27;;;24.06;63.08
45872;BME280;32333;55.844;-3.210;2023-06-14T12:17:05;100113.83;;;23.99;63.99
45872;BME280;32333;55.844;-3.210;2023-06-14T12:19:34;100112.94;;;24.72;60.68
45872;BME280;32333;55.844;-3.210;2023-06-14T12:22:10;100106.58;;;24.09;59.51
45872;BME280;32333;55.844;-3.210;2023-06-14T12:24:39;100113.46;;;23.65;60.15
45872;BME280;32333;55.844;-3.210;2023-06-14T12:27:09;100107.35;;;24.29;57.64
45872;BME280;32333;55.844;-3.210;2023-06-14T12:29:37;100110.53;;;23.97;58.24
45872;BME280;32333;55.844;-3.210;2023-06-14T12:32:05;100113.66;;;23.13;61.22
45872;BME280;32333;55.844;-3.210;2023-06-14T12:34:33;100120.40;;;23.64;60.98
45872;BME280;32333;55.844;-3.210;2023-06-14T12:37:02;100107.31;;;24.04;56.38
45872;BME280;32333;55.844;-3.210;2023-06-14T12:39:30;100107.84;;;23.84;58.63
45872;BME280;32333;55.844;-3.210;2023-06-14T12:41:58;100105.95;;;24.23;55.85
45872;BME280;32333;55.844;-3.210;2023-06-14T12:44:36;100102.23;;;24.29;56.07
45872;BME280;32333;55.844;-3.210;2023-06-14T12:47:03;100104.71;;;23.68;56.05
45872;BME280;32333;55.844;-3.210;2023-06-14T12:49:31;100103.58;;;23.74;57.57
45872;BME280;32333;55.844;-3.210;2023-06-14T12:51:58;100103.84;;;24.08;55.00
45872;BME280;32333;55.844;-3.210;2023-06-14T12:54:25;100099.48;;;24.28;54.85
45872;BME280;32333;55.844;-3.210;2023-06-14T12:56:52;100104.78;;;23.54;54.47